Terminal Aerodrome Forecast
Issued by NWS

Home | Current Version | Previous Version | Text Only | Print | Product List | Glossary On
Versions: 1 2 3 4 5 6 7 8 9 10 11 12 13 14 15 16 17 18 19 20 21 22 23 24 25 26 27 28
000
FTUS42 TJSJ 301738
TAFJMZ
TAF
TJMZ 301738Z 3018/3118 29009KT P6SM VCTS FEW030CB SCT045
     FM301900 29011KT P6SM SHRA VCTS SCT030CB BKN045
     FM302200 07006KT P6SM FEW035 FEW045
     FM311600 29010KT P6SM VCSH SCT030 BKN045
     AMD NOT SKED=

USA.gov is the U.S. government's official web portal to all federal, state and local government web resources and services.